sensor_id;sensor_type;location;lat;lon;timestamp;P1;durP1;ratioP1;P2;durP2;ratioP2
28427;SDS011;15662;49.128;8.520;2023-02-10T00:01:40;30.15;;;18.27;;
28427;SDS011;15662;49.128;8.520;2023-02-10T00:04:09;33.22;;;18.58;;
28427;SDS011;15662;49.128;8.520;2023-02-10T00:06:39;33.25;;;18.75;;
28427;SDS011;15662;49.128;8.520;2023-02-10T00:09:09;29.75;;;17.73;;
28427;SDS011;15662;49.128;8.520;2023-02-10T00:11:40;30.35;;;17.48;;
28427;SDS011;15662;49.128;8.520;2023-02-10T00:14:24;31.45;;;17.38;;
28427;SDS011;15662;49.128;8.520;2023-02-10T00:16:54;31.05;;;17.83;;
28427;SDS011;15662;49.128;8.520;2023-02-10T00:19:23;34.03;;;18.08;;
28427;SDS011;15662;49.128;8.520;2023-02-10T00:21:53;30.57;;;17.87;;
28427;SDS011;15662;49.128;8.520;2023-02-10T00:24:21;32.83;;;18.38;;
28427;SDS011;15662;49.128;8.520;2023-02-10T00:26:49;28.52;;;17.10;;
28427;SDS011;15662;49.128;8.520;2023-02-10T00:29:17;29.10;;;17.45;;
28427;SDS011;15662;49.128;8.520;2023-02-10T00:31:45;32.38;;;17.77;;
28427;SDS011;15662;49.128;8.520;2023-02-10T00:34:14;31.15;;;18.25;;
28427;SDS011;15662;49.128;8.520;2023-02-10T00:36:45;31.17;;;18.60;;
28427;SDS011;15662;49.128;8.520;2023-02-10T00:39:17;32.65;;;18.40;;
28427;SDS011;15662;49.128;8.520;2023-02-10T00:41:45;30.63;;;17.98;;
28427;SDS011;15662;49.128;8.520;2023-02-10T00:44:13;30.00;;;17.67;;
28427;SDS011;15662;49.128;8.520;2023-02-10T00:46:40;33.17;;;18.20;;
28427;SDS011;15662;49.128;8.520;2023-02-10T00:49:09;28.98;;;18.10;;
28427;SDS011;15662;49.128;8.520;2023-02-10T00:51:39;32.50;;;18.42;;
28427;SDS011;15662;49.128;8.520;2023-02-10T00:54:07;28.40;;;16.70;;
28427;SDS011;15662;49.128;8.520;2023-02-10T00:56:35;30.63;;;17.48;;
28427;SDS011;15662;49.128;8.520;2023-02-10T00:59:03;29.60;;;17.55;;
28427;SDS011;15662;49.128;8.520;2023-02-10T01:01:31;32.42;;;18.60;;
28427;SDS011;15662;49.128;8.520;2023-02-10T01:04:00;31.45;;;18.02;;
28427;SDS011;15662;49.128;8.520;2023-02-10T01:06:27;29.73;;;17.35;;
28427;SDS011;15662;49.128;8.520;2023-02-10T01:08:55;31.92;;;18.25;;
28427;SDS011;15662;49.128;8.520;2023-02-10T01:11:23;31.38;;;17.75;;
28427;SDS011;15662;49.128;8.520;2023-02-10T01:13:51;32.15;;;18.00;;
28427;SDS011;15662;49.128;8.520;2023-02-10T01:16:20;32.47;;;19.25;;
28427;SDS011;15662;49.128;8.520;2023-02-10T01:18:48;33.55;;;19.02;;
28427;SDS011;15662;49.128;8.520;2023-02-10T01:21:17;31.48;;;18.02;;
28427;SDS011;15662;49.128;8.520;2023-02-10T01:23:47;21.67;;;13.45;;
28427;SDS011;15662;49.128;8.520;2023-02-10T01:26:15;31.10;;;17.38;;
28427;SDS011;15662;49.128;8.520;2023-02-10T01:28:43;31.17;;;17.98;;
28427;SDS011;15662;49.128;8.520;2023-02-10T01:31:13;32.55;;;18.08;;
28427;SDS011;15662;49.128;8.520;2023-02-10T01:33:44;29.60;;;17.98;;
28427;SDS011;15662;49.128;8.520;2023-02-10T01:36:14;28.83;;;17.48;;
28427;SDS011;15662;49.128;8.520;2023-02-10T01:38:44;29.70;;;16.73;;
28427;SDS011;15662;49.128;8.520;2023-02-10T01:41:13;30.92;;;18.17;;
28427;SDS011;15662;49.128;8.520;2023-02-10T01:46:32;27.92;;;17.23;;
28427;SDS011;15662;49.128;8.520;2023-02-10T01:49:09;31.80;;;18.55;;
28427;SDS011;15662;49.128;8.520;2023-02-10T01:51:45;29.60;;;17.88;;
28427;SDS011;15662;49.128;8.520;2023-02-10T01:54:24;31.52;;;18.02;;
28427;SDS011;15662;49.128;8.520;2023-02-10T01:57:04;30.48;;;17.50;;
28427;SDS011;15662;49.128;8.520;2023-02-10T01:59:33;29.77;;;18.58;;
28427;SDS011;15662;49.128;8.520;2023-02-10T02:04:37;30.70;;;18.05;;
28427;SDS011;15662;49.128;8.520;2023-02-10T02:07:22;32.35;;;18.30;;
28427;SDS011;15662;49.128;8.520;2023-02-10T02:09:54;30.42;;;17.45;;
28427;SDS011;15662;49.128;8.520;2023-02-10T02:15:35;30.77;;;18.40;;
28427;SDS011;15662;49.128;8.520;2023-02-10T02:29:44;30.55;;;18.02;;
28427;SDS011;15662;49.128;8.520;2023-02-10T02:32:53;30.88;;;18.13;;
28427;SDS011;15662;49.128;8.520;2023-02-10T02:35:28;31.48;;;17.95;;
28427;SDS011;15662;49.128;8.520;2023-02-10T02:38:05;31.65;;;18.45;;
28427;SDS011;15662;49.128;8.520;2023-02-10T02:40:33;29.52;;;17.70;;
28427;SDS011;15662;49.128;8.520;2023-02-10T02:43:01;30.20;;;17.83;;
28427;SDS011;15662;49.128;8.520;2023-02-10T02:45:33;32.17;;;18.60;;
28427;SDS011;15662;49.128;8.520;2023-02-10T02:48:46;29.58;;;17.90;;
28427;SDS011;15662;49.128;8.520;2023-02-10T02:51:57;33.85;;;18.48;;
28427;SDS011;15662;49.128;8.520;2023-02-10T02:54:44;31.00;;;17.40;;
28427;SDS011;15662;49.128;8.520;2023-02-10T02:58:01;32.55;;;18.75;;
28427;SDS011;15662;49.128;8.520;2023-02-10T03:00:38;30.23;;;16.95;;
28427;SDS011;15662;49.128;8.520;2023-02-10T03:03:08;33.17;;;18.13;;
28427;SDS011;15662;49.128;8.520;2023-02-10T03:05:36;35.63;;;18.05;;
28427;SDS011;15662;49.128;8.520;2023-02-10T03:08:04;28.60;;;17.27;;
28427;SDS011;15662;49.128;8.520;2023-02-10T03:10:32;31.15;;;17.85;;
28427;SDS011;15662;49.128;8.520;2023-02-10T03:13:00;31.50;;;17.58;;
28427;SDS011;15662;49.128;8.520;2023-02-10T03:15:28;31.98;;;17.83;;
28427;SDS011;15662;49.128;8.520;2023-02-10T03:17:57;31.02;;;17.55;;
28427;SDS011;15662;49.128;8.520;2023-02-10T03:20:25;30.52;;;17.45;;
28427;SDS011;15662;49.128;8.520;2023-02-10T03:22:53;32.05;;;17.90;;
28427;SDS011;15662;49.128;8.520;2023-02-10T03:25:20;28.42;;;17.52;;
28427;SDS011;15662;49.128;8.520;2023-02-10T03:27:48;31.60;;;17.35;;
28427;SDS011;15662;49.128;8.520;2023-02-10T03:30:16;30.27;;;17.30;;
28427;SDS011;15662;49.128;8.520;2023-02-10T03:32:44;30.85;;;18.52;;
28427;SDS011;15662;49.128;8.520;2023-02-10T03:35:13;30.10;;;17.35;;
28427;SDS011;15662;49.128;8.520;2023-02-10T03:37:42;30.00;;;17.70;;
28427;SDS011;15662;49.128;8.520;2023-02-10T03:40:11;31.25;;;18.27;;
28427;SDS011;15662;49.128;8.520;2023-02-10T03:42:39;31.02;;;18.52;;
28427;SDS011;15662;49.128;8.520;2023-02-10T03:45:07;30.63;;;17.70;;
28427;SDS011;15662;49.128;8.520;2023-02-10T03:47:35;31.25;;;17.77;;
28427;SDS011;15662;49.128;8.520;2023-02-10T03:50:03;31.33;;;17.83;;
28427;SDS011;15662;49.128;8.520;2023-02-10T03:52:31;32.75;;;18.70;;
28427;SDS011;15662;49.128;8.520;2023-02-10T03:54:59;27.20;;;17.38;;
28427;SDS011;15662;49.128;8.520;2023-02-10T03:57:27;31.75;;;17.75;;
28427;SDS011;15662;49.128;8.520;2023-02-10T03:59:55;31.80;;;18.77;;
28427;SDS011;15662;49.128;8.520;2023-02-10T04:02:23;28.50;;;17.20;;
28427;SDS011;15662;49.128;8.520;2023-02-10T04:04:51;31.83;;;19.23;;
28427;SDS011;15662;49.128;8.520;2023-02-10T04:07:19;31.95;;;18.85;;
28427;SDS011;15662;49.128;8.520;2023-02-10T04:09:47;32.25;;;18.75;;
28427;SDS011;15662;49.128;8.520;2023-02-10T04:12:14;31.38;;;18.85;;
28427;SDS011;15662;49.128;8.520;2023-02-10T04:14:42;33.35;;;18.52;;
28427;SDS011;15662;49.128;8.520;2023-02-10T04:17:10;31.42;;;18.73;;
28427;SDS011;15662;49.128;8.520;2023-02-10T04:19:38;28.90;;;19.17;;
28427;SDS011;15662;49.128;8.520;2023-02-10T04:22:06;33.38;;;19.90;;
28427;SDS011;15662;49.128;8.520;2023-02-10T04:24:34;32.05;;;19.38;;
28427;SDS011;15662;49.128;8.520;2023-02-10T04:27:02;33.85;;;19.25;;
28427;SDS011;15662;49.128;8.520;2023-02-10T04:29:30;33.85;;;19.50;;
28427;SDS011;15662;49.128;8.520;2023-02-10T04:31:57;32.47;;;18.08;;
28427;SDS011;15662;49.128;8.520;2023-02-10T04:34:26;35.85;;;18.80;;
28427;SDS011;15662;49.128;8.520;2023-02-10T04:36:54;31.65;;;18.92;;
28427;SDS011;15662;49.128;8.520;2023-02-10T04:39:21;32.75;;;18.27;;
28427;SDS011;15662;49.128;8.520;2023-02-10T04:41:49;32.17;;;18.40;;
28427;SDS011;15662;49.128;8.520;2023-02-10T04:44:17;33.83;;;18.35;;
28427;SDS011;15662;49.128;8.520;2023-02-10T04:46:44;33.67;;;18.73;;
28427;SDS011;15662;49.128;8.520;2023-02-10T04:49:13;34.65;;;19.85;;
28427;SDS011;15662;49.128;8.520;2023-02-10T04:51:40;32.60;;;19.38;;
28427;SDS011;15662;49.128;8.520;2023-02-10T04:54:08;37.38;;;21.05;;
28427;SDS011;15662;49.128;8.520;2023-02-10T04:56:36;32.47;;;19.08;;
28427;SDS011;15662;49.128;8.520;2023-02-10T04:59:03;30.75;;;18.45;;
28427;SDS011;15662;49.128;8.520;2023-02-10T05:01:31;33.20;;;19.23;;
28427;SDS011;15662;49.128;8.520;2023-02-10T05:04:00;32.17;;;18.25;;
28427;SDS011;15662;49.128;8.520;2023-02-10T05:06:28;31.17;;;17.95;;
28427;SDS011;15662;49.128;8.520;2023-02-10T05:08:56;28.63;;;17.70;;
28427;SDS011;15662;49.128;8.520;2023-02-10T05:11:24;31.30;;;18.30;;
28427;SDS011;15662;49.128;8.520;2023-02-10T05:13:52;32.53;;;18.58;;
28427;SDS011;15662;49.128;8.520;2023-02-10T05:16:20;30.13;;;18.67;;
28427;SDS011;15662;49.128;8.520;2023-02-10T05:18:49;30.30;;;18.60;;
28427;SDS011;15662;49.128;8.520;2023-02-10T05:21:17;29.08;;;18.38;;
28427;SDS011;15662;49.128;8.520;2023-02-10T05:23:44;30.85;;;18.20;;
28427;SDS011;15662;49.128;8.520;2023-02-10T05:26:12;32.22;;;19.73;;
28427;SDS011;15662;49.128;8.520;2023-02-10T05:28:40;32.47;;;19.33;;
28427;SDS011;15662;49.128;8.520;2023-02-10T05:31:08;36.05;;;22.10;;
28427;SDS011;15662;49.128;8.520;2023-02-10T05:33:36;40.38;;;25.20;;
28427;SDS011;15662;49.128;8.520;2023-02-10T05:36:03;37.17;;;24.25;;
28427;SDS011;15662;49.128;8.520;2023-02-10T05:38:32;36.78;;;22.95;;
28427;SDS011;15662;49.128;8.520;2023-02-10T05:41:00;36.58;;;22.65;;
28427;SDS011;15662;49.128;8.520;2023-02-10T05:43:29;36.92;;;22.17;;
28427;SDS011;15662;49.128;8.520;2023-02-10T05:45:57;35.35;;;21.10;;
28427;SDS011;15662;49.128;8.520;2023-02-10T05:48:25;33.58;;;21.45;;
28427;SDS011;15662;49.128;8.520;2023-02-10T05:50:53;38.40;;;22.08;;
28427;SDS011;15662;49.128;8.520;2023-02-10T05:53:21;37.70;;;22.20;;
28427;SDS011;15662;49.128;8.520;2023-02-10T05:55:48;37.13;;;22.75;;
28427;SDS011;15662;49.128;8.520;2023-02-10T05:58:17;36.72;;;21.98;;
28427;SDS011;15662;49.128;8.520;2023-02-10T06:00:44;38.42;;;22.10;;
28427;SDS011;15662;49.128;8.520;2023-02-10T06:03:12;36.47;;;22.38;;
28427;SDS011;15662;49.128;8.520;2023-02-10T06:05:40;36.05;;;21.77;;
28427;SDS011;15662;49.128;8.520;2023-02-10T06:08:10;36.75;;;21.73;;
28427;SDS011;15662;49.128;8.520;2023-02-10T06:10:38;39.90;;;22.23;;
28427;SDS011;15662;49.128;8.520;2023-02-10T06:13:05;47.83;;;23.88;;
28427;SDS011;15662;49.128;8.520;2023-02-10T06:15:33;42.75;;;23.38;;
28427;SDS011;15662;49.128;8.520;2023-02-10T06:18:01;43.65;;;23.63;;
28427;SDS011;15662;49.128;8.520;2023-02-10T06:20:30;44.22;;;23.67;;
28427;SDS011;15662;49.128;8.520;2023-02-10T06:22:58;37.30;;;22.33;;
28427;SDS011;15662;49.128;8.520;2023-02-10T06:25:25;38.35;;;22.85;;
28427;SDS011;15662;49.128;8.520;2023-02-10T06:27:53;36.70;;;21.58;;
28427;SDS011;15662;49.128;8.520;2023-02-10T06:30:21;35.15;;;21.60;;
28427;SDS011;15662;49.128;8.520;2023-02-10T06:32:51;38.92;;;24.75;;
28427;SDS011;15662;49.128;8.520;2023-02-10T06:35:20;40.05;;;24.08;;
28427;SDS011;15662;49.128;8.520;2023-02-10T06:37:48;36.63;;;23.25;;
28427;SDS011;15662;49.128;8.520;2023-02-10T06:40:16;40.50;;;24.08;;
28427;SDS011;15662;49.128;8.520;2023-02-10T06:42:44;42.03;;;25.48;;
28427;SDS011;15662;49.128;8.520;2023-02-10T06:45:12;41.80;;;25.05;;
28427;SDS011;15662;49.128;8.520;2023-02-10T06:47:39;41.70;;;24.45;;
28427;SDS011;15662;49.128;8.520;2023-02-10T06:50:07;41.75;;;24.27;;
28427;SDS011;15662;49.128;8.520;2023-02-10T06:52:37;41.85;;;24.30;;
28427;SDS011;15662;49.128;8.520;2023-02-10T06:55:06;38.63;;;23.85;;
28427;SDS011;15662;49.128;8.520;2023-02-10T06:57:35;44.38;;;25.05;;
28427;SDS011;15662;49.128;8.520;2023-02-10T07:00:04;46.58;;;26.85;;
28427;SDS011;15662;49.128;8.520;2023-02-10T07:02:40;41.28;;;25.13;;
28427;SDS011;15662;49.128;8.520;2023-02-10T07:05:09;41.63;;;25.33;;
28427;SDS011;15662;49.128;8.520;2023-02-10T07:07:38;38.70;;;24.55;;
28427;SDS011;15662;49.128;8.520;2023-02-10T07:10:06;44.00;;;24.63;;
28427;SDS011;15662;49.128;8.520;2023-02-10T07:12:35;42.28;;;23.80;;
28427;SDS011;15662;49.128;8.520;2023-02-10T07:15:03;38.67;;;23.98;;
28427;SDS011;15662;49.128;8.520;2023-02-10T07:17:32;38.20;;;22.42;;
28427;SDS011;15662;49.128;8.520;2023-02-10T07:20:01;37.33;;;23.23;;
28427;SDS011;15662;49.128;8.520;2023-02-10T07:22:28;38.65;;;23.08;;
28427;SDS011;15662;49.128;8.520;2023-02-10T07:24:56;39.83;;;23.65;;
28427;SDS011;15662;49.128;8.520;2023-02-10T07:27:24;41.72;;;24.63;;
28427;SDS011;15662;49.128;8.520;2023-02-10T07:29:52;45.55;;;25.48;;
28427;SDS011;15662;49.128;8.520;2023-02-10T07:32:20;42.65;;;25.15;;
28427;SDS011;15662;49.128;8.520;2023-02-10T07:34:48;41.65;;;25.40;;
28427;SDS011;15662;49.128;8.520;2023-02-10T07:37:16;42.00;;;24.92;;
28427;SDS011;15662;49.128;8.520;2023-02-10T07:39:44;41.65;;;23.17;;
28427;SDS011;15662;49.128;8.520;2023-02-10T07:42:12;38.15;;;22.63;;
28427;SDS011;15662;49.128;8.520;2023-02-10T07:45:04;34.63;;;21.88;;
28427;SDS011;15662;49.128;8.520;2023-02-10T07:47:33;34.05;;;20.92;;
28427;SDS011;15662;49.128;8.520;2023-02-10T07:50:01;39.67;;;22.38;;
28427;SDS011;15662;49.128;8.520;2023-02-10T07:52:30;33.85;;;20.52;;
28427;SDS011;15662;49.128;8.520;2023-02-10T07:54:58;33.10;;;20.75;;
28427;SDS011;15662;49.128;8.520;2023-02-10T07:57:32;36.65;;;20.83;;
28427;SDS011;15662;49.128;8.520;2023-02-10T07:59:59;33.25;;;22.20;;
28427;SDS011;15662;49.128;8.520;2023-02-10T08:02:38;34.42;;;21.40;;
28427;SDS011;15662;49.128;8.520;2023-02-10T08:05:08;35.83;;;22.02;;
28427;SDS011;15662;49.128;8.520;2023-02-10T08:07:36;39.33;;;22.80;;
28427;SDS011;15662;49.128;8.520;2023-02-10T08:10:04;38.22;;;22.52;;
28427;SDS011;15662;49.128;8.520;2023-02-10T08:12:32;36.97;;;21.90;;
28427;SDS011;15662;49.128;8.520;2023-02-10T08:15:01;37.65;;;21.23;;
28427;SDS011;15662;49.128;8.520;2023-02-10T08:17:29;33.80;;;21.45;;
28427;SDS011;15662;49.128;8.520;2023-02-10T08:19:57;35.95;;;22.25;;
28427;SDS011;15662;49.128;8.520;2023-02-10T08:22:25;34.90;;;21.35;;
28427;SDS011;15662;49.128;8.520;2023-02-10T08:24:53;37.38;;;22.35;;
28427;SDS011;15662;49.128;8.520;2023-02-10T08:27:21;34.78;;;21.95;;
28427;SDS011;15662;49.128;8.520;2023-02-10T08:29:49;36.67;;;22.10;;
28427;SDS011;15662;49.128;8.520;2023-02-10T08:32:18;35.85;;;22.45;;
28427;SDS011;15662;49.128;8.520;2023-02-10T08:34:46;36.13;;;21.73;;
28427;SDS011;15662;49.128;8.520;2023-02-10T08:37:18;36.72;;;21.02;;
28427;SDS011;15662;49.128;8.520;2023-02-10T08:39:46;36.80;;;22.13;;
28427;SDS011;15662;49.128;8.520;2023-02-10T08:42:14;35.15;;;21.40;;
28427;SDS011;15662;49.128;8.520;2023-02-10T08:44:42;32.00;;;20.60;;
28427;SDS011;15662;49.128;8.520;2023-02-10T08:47:09;31.40;;;20.27;;
28427;SDS011;15662;49.128;8.520;2023-02-10T08:49:41;30.42;;;19.33;;
28427;SDS011;15662;49.128;8.520;2023-02-10T08:52:09;35.35;;;21.23;;
28427;SDS011;15662;49.128;8.520;2023-02-10T08:54:37;35.22;;;22.00;;
28427;SDS011;15662;49.128;8.520;2023-02-10T08:57:05;32.35;;;20.52;;
28427;SDS011;15662;49.128;8.520;2023-02-10T08:59:33;36.55;;;21.08;;
28427;SDS011;15662;49.128;8.520;2023-02-10T09:02:01;33.17;;;21.05;;
28427;SDS011;15662;49.128;8.520;2023-02-10T09:04:29;33.95;;;21.27;;
28427;SDS011;15662;49.128;8.520;2023-02-10T09:06:57;39.00;;;21.33;;
28427;SDS011;15662;49.128;8.520;2023-02-10T09:09:25;34.03;;;21.08;;
28427;SDS011;15662;49.128;8.520;2023-02-10T09:11:54;33.08;;;21.50;;
28427;SDS011;15662;49.128;8.520;2023-02-10T09:14:22;30.85;;;20.10;;
28427;SDS011;15662;49.128;8.520;2023-02-10T09:16:50;36.72;;;21.52;;
28427;SDS011;15662;49.128;8.520;2023-02-10T09:19:18;35.38;;;21.25;;
28427;SDS011;15662;49.128;8.520;2023-02-10T09:21:47;35.25;;;21.10;;
28427;SDS011;15662;49.128;8.520;2023-02-10T09:24:15;35.00;;;21.20;;
28427;SDS011;15662;49.128;8.520;2023-02-10T09:26:44;34.75;;;21.48;;
28427;SDS011;15662;49.128;8.520;2023-02-10T09:29:11;36.35;;;21.90;;
28427;SDS011;15662;49.128;8.520;2023-02-10T09:31:40;34.65;;;21.92;;
28427;SDS011;15662;49.128;8.520;2023-02-10T09:34:09;33.75;;;22.80;;
28427;SDS011;15662;49.128;8.520;2023-02-10T09:36:37;37.67;;;22.52;;
28427;SDS011;15662;49.128;8.520;2023-02-10T09:39:05;37.67;;;23.10;;
28427;SDS011;15662;49.128;8.520;2023-02-10T09:44:13;38.40;;;24.38;;
28427;SDS011;15662;49.128;8.520;2023-02-10T09:57:58;39.53;;;23.98;;
28427;SDS011;15662;49.128;8.520;2023-02-10T10:00:34;39.15;;;24.80;;
28427;SDS011;15662;49.128;8.520;2023-02-10T10:03:13;39.17;;;24.50;;
28427;SDS011;15662;49.128;8.520;2023-02-10T10:06:10;40.90;;;25.65;;
28427;SDS011;15662;49.128;8.520;2023-02-10T10:23:00;35.92;;;22.77;;
28427;SDS011;15662;49.128;8.520;2023-02-10T10:26:02;35.15;;;22.30;;
28427;SDS011;15662;49.128;8.520;2023-02-10T10:29:19;35.03;;;21.98;;
28427;SDS011;15662;49.128;8.520;2023-02-10T10:32:08;34.10;;;22.38;;
28427;SDS011;15662;49.128;8.520;2023-02-10T10:34:51;34.95;;;22.50;;
28427;SDS011;15662;49.128;8.520;2023-02-10T10:37:21;35.60;;;22.77;;
28427;SDS011;15662;49.128;8.520;2023-02-10T10:40:03;37.80;;;22.75;;
28427;SDS011;15662;49.128;8.520;2023-02-10T10:45:23;36.13;;;22.63;;
28427;SDS011;15662;49.128;8.520;2023-02-10T10:48:07;34.45;;;21.90;;
28427;SDS011;15662;49.128;8.520;2023-02-10T10:50:44;38.60;;;22.58;;
28427;SDS011;15662;49.128;8.520;2023-02-10T10:53:16;37.22;;;22.17;;
28427;SDS011;15662;49.128;8.520;2023-02-10T10:55:55;33.13;;;20.92;;
28427;SDS011;15662;49.128;8.520;2023-02-10T10:58:30;33.13;;;21.30;;
28427;SDS011;15662;49.128;8.520;2023-02-10T11:01:08;31.80;;;20.42;;
28427;SDS011;15662;49.128;8.520;2023-02-10T11:03:36;32.20;;;20.38;;
28427;SDS011;15662;49.128;8.520;2023-02-10T11:06:06;29.63;;;18.88;;
28427;SDS011;15662;49.128;8.520;2023-02-10T11:08:39;29.55;;;19.80;;
28427;SDS011;15662;49.128;8.520;2023-02-10T11:11:30;33.85;;;20.35;;
28427;SDS011;15662;49.128;8.520;2023-02-10T11:14:18;28.38;;;19.50;;
28427;SDS011;15662;49.128;8.520;2023-02-10T11:16:53;31.58;;;19.70;;
28427;SDS011;15662;49.128;8.520;2023-02-10T11:19:29;32.35;;;20.88;;
28427;SDS011;15662;49.128;8.520;2023-02-10T11:22:15;29.48;;;19.67;;
28427;SDS011;15662;49.128;8.520;2023-02-10T11:24:52;32.33;;;19.80;;
28427;SDS011;15662;49.128;8.520;2023-02-10T11:27:23;33.80;;;20.20;;
28427;SDS011;15662;49.128;8.520;2023-02-10T11:29:52;29.80;;;19.38;;
28427;SDS011;15662;49.128;8.520;2023-02-10T11:32:28;32.15;;;19.92;;
28427;SDS011;15662;49.128;8.520;2023-02-10T11:35:02;30.20;;;19.27;;
28427;SDS011;15662;49.128;8.520;2023-02-10T11:37:37;30.67;;;19.35;;
28427;SDS011;15662;49.128;8.520;2023-02-10T11:40:17;26.90;;;18.17;;
28427;SDS011;15662;49.128;8.520;2023-02-10T11:42:58;29.48;;;18.95;;
28427;SDS011;15662;49.128;8.520;2023-02-10T11:45:33;28.60;;;18.70;;
28427;SDS011;15662;49.128;8.520;2023-02-10T11:48:13;28.45;;;18.60;;
28427;SDS011;15662;49.128;8.520;2023-02-10T11:50:46;27.52;;;18.08;;
28427;SDS011;15662;49.128;8.520;2023-02-10T11:53:21;27.90;;;18.25;;
28427;SDS011;15662;49.128;8.520;2023-02-10T12:13:12;27.77;;;18.25;;
28427;SDS011;15662;49.128;8.520;2023-02-10T12:19:03;28.83;;;17.38;;
28427;SDS011;15662;49.128;8.520;2023-02-10T12:24:57;28.10;;;17.73;;
28427;SDS011;15662;49.128;8.520;2023-02-10T12:37:01;26.23;;;17.80;;
28427;SDS011;15662;49.128;8.520;2023-02-10T12:52:56;25.35;;;17.38;;
28427;SDS011;15662;49.128;8.520;2023-02-10T12:58:13;25.70;;;16.92;;
28427;SDS011;15662;49.128;8.520;2023-02-10T13:03:34;25.75;;;16.90;;
28427;SDS011;15662;49.128;8.520;2023-02-10T13:09:01;24.52;;;16.70;;
28427;SDS011;15662;49.128;8.520;2023-02-10T13:14:28;26.70;;;17.42;;
28427;SDS011;15662;49.128;8.520;2023-02-10T13:16:58;24.98;;;16.70;;
28427;SDS011;15662;49.128;8.520;2023-02-10T13:20:15;27.13;;;16.95;;
28427;SDS011;15662;49.128;8.520;2023-02-10T13:30:38;24.83;;;16.83;;
28427;SDS011;15662;49.128;8.520;2023-02-10T13:36:25;24.42;;;16.33;;
28427;SDS011;15662;49.128;8.520;2023-02-10T13:39:05;25.63;;;17.33;;
28427;SDS011;15662;49.128;8.520;2023-02-10T13:41:48;24.77;;;17.15;;
28427;SDS011;15662;49.128;8.520;2023-02-10T13:44:22;27.58;;;17.48;;
28427;SDS011;15662;49.128;8.520;2023-02-10T13:50:07;24.55;;;17.02;;
28427;SDS011;15662;49.128;8.520;2023-02-10T13:53:00;30.20;;;16.17;;
28427;SDS011;15662;49.128;8.520;2023-02-10T14:00:45;23.25;;;15.98;;
28427;SDS011;15662;49.128;8.520;2023-02-10T14:03:20;27.20;;;16.38;;
28427;SDS011;15662;49.128;8.520;2023-02-10T14:08:33;23.45;;;16.05;;
28427;SDS011;15662;49.128;8.520;2023-02-10T14:11:30;24.77;;;15.80;;
28427;SDS011;15662;49.128;8.520;2023-02-10T14:14:19;22.70;;;15.02;;
28427;SDS011;15662;49.128;8.520;2023-02-10T14:19:41;23.83;;;15.00;;
28427;SDS011;15662;49.128;8.520;2023-02-10T14:22:25;24.38;;;15.40;;
28427;SDS011;15662;49.128;8.520;2023-02-10T14:25:04;24.67;;;16.02;;
28427;SDS011;15662;49.128;8.520;2023-02-10T14:27:54;25.40;;;15.10;;
28427;SDS011;15662;49.128;8.520;2023-02-10T14:30:28;22.30;;;14.82;;
28427;SDS011;15662;49.128;8.520;2023-02-10T14:33:51;22.35;;;15.07;;
28427;SDS011;15662;49.128;8.520;2023-02-10T14:36:14;22.00;;;14.27;;
28427;SDS011;15662;49.128;8.520;2023-02-10T14:38:48;25.17;;;16.15;;
28427;SDS011;15662;49.128;8.520;2023-02-10T14:41:24;26.60;;;15.68;;
28427;SDS011;15662;49.128;8.520;2023-02-10T14:43:56;24.15;;;15.60;;
28427;SDS011;15662;49.128;8.520;2023-02-10T14:46:31;23.67;;;15.77;;
28427;SDS011;15662;49.128;8.520;2023-02-10T14:49:01;22.83;;;15.70;;
28427;SDS011;15662;49.128;8.520;2023-02-10T14:51:55;21.63;;;15.20;;
28427;SDS011;15662;49.128;8.520;2023-02-10T14:54:45;23.65;;;15.52;;
28427;SDS011;15662;49.128;8.520;2023-02-10T14:57:34;22.05;;;15.40;;
28427;SDS011;15662;49.128;8.520;2023-02-10T15:00:02;23.73;;;15.82;;
28427;SDS011;15662;49.128;8.520;2023-02-10T15:02:31;25.33;;;16.55;;
28427;SDS011;15662;49.128;8.520;2023-02-10T15:05:02;24.27;;;16.20;;
28427;SDS011;15662;49.128;8.520;2023-02-10T15:07:35;24.27;;;16.13;;
28427;SDS011;15662;49.128;8.520;2023-02-10T15:13:05;24.33;;;15.63;;
28427;SDS011;15662;49.128;8.520;2023-02-10T15:15:37;22.35;;;15.70;;
28427;SDS011;15662;49.128;8.520;2023-02-10T15:18:18;24.10;;;15.68;;
28427;SDS011;15662;49.128;8.520;2023-02-10T15:20:51;26.38;;;15.55;;
28427;SDS011;15662;49.128;8.520;2023-02-10T15:23:22;24.15;;;16.63;;
28427;SDS011;15662;49.128;8.520;2023-02-10T15:26:06;23.85;;;16.50;;
28427;SDS011;15662;49.128;8.520;2023-02-10T15:28:45;26.02;;;16.20;;
28427;SDS011;15662;49.128;8.520;2023-02-10T15:31:24;25.00;;;16.40;;
28427;SDS011;15662;49.128;8.520;2023-02-10T15:33:55;24.83;;;17.55;;
28427;SDS011;15662;49.128;8.520;2023-02-10T15:36:34;25.50;;;15.95;;
28427;SDS011;15662;49.128;8.520;2023-02-10T15:39:20;24.48;;;16.10;;
28427;SDS011;15662;49.128;8.520;2023-02-10T15:45:21;25.20;;;16.60;;
28427;SDS011;15662;49.128;8.520;2023-02-10T15:50:28;25.88;;;17.73;;
28427;SDS011;15662;49.128;8.520;2023-02-10T15:52:57;25.77;;;17.33;;
28427;SDS011;15662;49.128;8.520;2023-02-10T15:55:29;27.77;;;17.48;;
28427;SDS011;15662;49.128;8.520;2023-02-10T15:58:02;25.27;;;16.35;;
28427;SDS011;15662;49.128;8.520;2023-02-10T16:00:32;25.45;;;17.00;;
28427;SDS011;15662;49.128;8.520;2023-02-10T16:03:02;24.20;;;16.60;;
28427;SDS011;15662;49.128;8.520;2023-02-10T16:05:34;24.58;;;16.45;;
28427;SDS011;15662;49.128;8.520;2023-02-10T16:08:05;26.88;;;16.67;;
28427;SDS011;15662;49.128;8.520;2023-02-10T16:10:43;21.42;;;14.93;;
28427;SDS011;15662;49.128;8.520;2023-02-10T16:13:14;27.38;;;16.90;;
28427;SDS011;15662;49.128;8.520;2023-02-10T16:15:44;27.00;;;17.33;;
28427;SDS011;15662;49.128;8.520;2023-02-10T16:18:21;26.75;;;17.70;;
28427;SDS011;15662;49.128;8.520;2023-02-10T16:20:53;26.77;;;17.48;;
28427;SDS011;15662;49.128;8.520;2023-02-10T16:23:21;31.08;;;20.55;;
28427;SDS011;15662;49.128;8.520;2023-02-10T16:25:49;34.00;;;21.73;;
28427;SDS011;15662;49.128;8.520;2023-02-10T16:28:18;31.45;;;20.10;;
28427;SDS011;15662;49.128;8.520;2023-02-10T16:30:46;27.98;;;18.33;;
28427;SDS011;15662;49.128;8.520;2023-02-10T16:33:14;27.48;;;18.63;;
28427;SDS011;15662;49.128;8.520;2023-02-10T16:35:42;27.73;;;18.85;;
28427;SDS011;15662;49.128;8.520;2023-02-10T16:38:10;29.83;;;18.88;;
28427;SDS011;15662;49.128;8.520;2023-02-10T16:40:43;29.83;;;19.77;;
28427;SDS011;15662;49.128;8.520;2023-02-10T16:43:11;31.52;;;19.88;;
28427;SDS011;15662;49.128;8.520;2023-02-10T16:45:39;32.08;;;19.85;;
28427;SDS011;15662;49.128;8.520;2023-02-10T16:48:08;33.72;;;21.40;;
28427;SDS011;15662;49.128;8.520;2023-02-10T16:50:40;34.55;;;20.50;;
28427;SDS011;15662;49.128;8.520;2023-02-10T16:53:09;32.80;;;20.88;;
28427;SDS011;15662;49.128;8.520;2023-02-10T16:55:38;37.97;;;22.10;;
28427;SDS011;15662;49.128;8.520;2023-02-10T16:58:11;34.60;;;22.15;;
28427;SDS011;15662;49.128;8.520;2023-02-10T17:00:41;34.33;;;21.30;;
28427;SDS011;15662;49.128;8.520;2023-02-10T17:03:10;32.50;;;20.08;;
28427;SDS011;15662;49.128;8.520;2023-02-10T17:05:38;30.55;;;20.08;;
28427;SDS011;15662;49.128;8.520;2023-02-10T17:08:07;33.50;;;21.05;;
28427;SDS011;15662;49.128;8.520;2023-02-10T17:10:36;35.30;;;21.77;;
28427;SDS011;15662;49.128;8.520;2023-02-10T17:13:04;34.25;;;21.80;;